Time;durP1;ratioP1;P1;durP2;ratioP2;P2;SDS_P1;SDS_P2;PMS_P1;PMS_P2;Temp;Humidity;BMP_temperature;BMP_pressure;BME280_temperature;BME280_humidity;BME280_pressure;Samples;Min_cycle;Max_cycle;Signal;HPM_P1;HPM_P2
2023/09/29 00:00:17;;;;;;;5.95;4.05;;;;;;;16.27;61.23;95368.75;5118546;28;20222;-65
2023/09/29 00:02:46;;;;;;;7.63;5.38;;;;;;;16.22;61.75;95357.94;5118692;28;20199;-65
2023/09/29 00:05:17;;;;;;;5.65;5.05;;;;;;;16.22;61.66;95363.50;5101041;28;20211;-65
2023/09/29 00:07:46;;;;;;;6.95;4.85;;;;;;;16.19;61.71;95363.47;5101643;28;20249;-65
2023/09/29 00:10:17;;;;;;;5.43;4.13;;;;;;;16.19;61.20;95358.72;5118704;28;20180;-65
2023/09/29 00:12:45;;;;;;;7.70;4.95;;;;;;;16.21;61.59;95361.13;5100929;28;20219;-65
2023/09/29 00:15:14;;;;;;;9.07;4.63;;;;;;;16.23;61.72;95359.56;5100219;28;20199;-65
2023/09/29 00:17:42;;;;;;;6.57;4.57;;;;;;;16.21;61.67;95361.91;5101088;28;20195;-66
2023/09/29 00:20:17;;;;;;;6.03;4.60;;;;;;;16.22;62.07;95357.94;5101248;28;20191;-65
2023/09/29 00:22:47;;;;;;;6.45;4.90;;;;;;;16.21;62.04;95359.13;5100546;28;20223;-66
2023/09/29 00:25:17;;;;;;;7.03;4.82;;;;;;;16.20;61.75;95365.09;5118387;28;20196;-66
2023/09/29 00:27:46;;;;;;;8.77;4.57;;;;;;;16.15;61.72;95363.44;5118364;28;20184;-66
2023/09/29 00:30:15;;;;;;;6.43;4.80;;;;;;;16.11;62.09;95362.59;5100338;28;20196;-66
2023/09/29 00:32:46;;;;;;;7.10;4.72;;;;;;;16.08;61.70;95360.59;5099927;28;20196;-66
2023/09/29 00:35:21;;;;;;;6.57;4.03;;;;;;;16.05;61.55;95355.78;5118514;28;20397;-66
2023/09/29 00:37:50;;;;;;;7.60;3.90;;;;;;;16.03;61.68;95361.72;5100751;28;20202;-66
2023/09/29 00:40:18;;;;;;;6.43;4.28;;;;;;;16.04;61.39;95357.75;5117804;28;20628;-66
2023/09/29 00:42:50;;;;;;;6.40;4.43;;;;;;;16.05;61.74;95364.94;5118084;28;20248;-66
2023/09/29 00:45:22;;;;;;;6.57;3.92;;;;;;;16.06;61.94;95355.41;5100398;28;20188;-66
2023/09/29 00:47:55;;;;;;;5.57;3.65;;;;;;;16.02;61.46;95357.34;5117973;28;20195;-66
2023/09/29 00:50:28;;;;;;;3.92;3.42;;;;;;;16.04;61.36;95356.97;5117913;28;20187;-66
2023/09/29 00:52:58;;;;;;;6.93;4.00;;;;;;;16.02;62.10;95351.00;5117734;28;20194;-66
2023/09/29 00:55:28;;;;;;;8.32;4.32;;;;;;;15.99;61.70;95352.56;5117725;28;20290;-66
2023/09/29 00:57:59;;;;;;;5.60;4.10;;;;;;;15.93;61.70;95337.38;5117362;28;20244;-66
2023/09/29 01:00:37;;;;;;;4.35;3.95;;;;;;;15.94;61.90;95336.22;5117983;28;20199;-66
2023/09/29 01:03:08;;;;;;;6.55;3.90;;;;;;;15.89;62.37;95344.88;5099642;28;20199;-66
2023/09/29 01:05:39;;;;;;;8.10;4.57;;;;;;;15.82;62.30;95347.59;5100256;28;20196;-66
2023/09/29 01:08:09;;;;;;;4.80;4.35;;;;;;;15.79;62.43;95345.56;5117601;28;20179;-66
2023/09/29 01:10:38;;;;;;;7.35;5.00;;;;;;;15.74;62.79;95349.50;5117255;28;20267;-66
2023/09/29 01:13:06;;;;;;;6.30;4.50;;;;;;;15.73;62.83;95347.91;5117400;28;20196;-65
2023/09/29 01:15:35;;;;;;;6.60;4.38;;;;;;;15.72;62.93;95351.03;5099558;28;20199;-65
2023/09/29 01:18:02;;;;;;;4.65;4.10;;;;;;;15.67;62.38;95354.97;5117384;28;20186;-65
2023/09/29 01:20:30;;;;;;;7.70;4.20;;;;;;;15.61;62.72;95348.09;5100029;28;20214;-65
2023/09/29 01:23:01;;;;;;;5.57;4.05;;;;;;;15.63;63.14;95342.97;5117321;28;20215;-65
2023/09/29 01:25:29;;;;;;;5.35;4.18;;;;;;;15.62;62.92;95350.50;5117259;28;20195;-65
2023/09/29 01:27:57;;;;;;;7.20;4.78;;;;;;;15.62;62.66;95346.94;5116048;28;20286;-65
2023/09/29 01:30:25;;;;;;;4.97;4.00;;;;;;;15.64;62.82;95350.91;5116879;28;20194;-65
2023/09/29 01:32:56;;;;;;;6.47;3.55;;;;;;;15.63;62.66;95346.53;5117152;28;20191;-65
2023/09/29 01:35:24;;;;;;;4.30;3.85;;;;;;;15.59;62.74;95351.25;5099114;28;20236;-65
2023/09/29 01:37:53;;;;;;;5.65;3.60;;;;;;;15.55;62.75;95353.22;5116632;28;20183;-65
2023/09/29 01:40:21;;;;;;;5.53;4.03;;;;;;;15.55;62.77;95353.22;5116729;28;20176;-65
2023/09/29 01:42:56;;;;;;;7.57;4.38;;;;;;;15.52;62.86;95342.03;5116959;28;20252;-65
2023/09/29 01:45:22;;;;;;;4.63;3.92;;;;;;;15.52;62.74;95347.59;5117036;28;20188;-65
2023/09/29 01:47:52;;;;;;;5.13;4.03;;;;;;;15.53;62.59;95357.53;5099032;28;20218;-65
2023/09/29 01:50:20;;;;;;;7.15;4.40;;;;;;;15.52;63.11;95351.19;5116367;28;20612;-65
2023/09/29 01:52:49;;;;;;;4.85;3.97;;;;;;;15.49;63.32;95354.72;5117029;28;20184;-66
2023/09/29 01:55:19;;;;;;;4.93;4.10;;;;;;;15.49;63.12;95351.13;5098377;28;20219;-66
2023/09/29 01:57:51;;;;;;;8.32;4.20;;;;;;;15.44;63.47;95349.50;5084690;28;20232;-66
2023/09/29 02:00:23;;;;;;;4.90;3.78;;;;;;;15.39;63.34;95350.59;5074292;28;20209;-66
2023/09/29 02:02:53;;;;;;;6.28;4.28;;;;;;;15.32;63.04;95352.50;5075563;28;20197;-66
2023/09/29 02:05:21;;;;;;;9.07;4.35;;;;;;;15.31;63.26;95348.91;5075852;28;20186;-65
2023/09/29 02:07:51;;;;;;;6.53;4.13;;;;;;;15.27;63.51;95355.59;5074871;28;20200;-65
2023/09/29 02:10:19;;;;;;;5.88;3.80;;;;;;;15.23;63.41;95358.34;5075334;28;20527;-65
2023/09/29 02:12:52;;;;;;;8.07;4.15;;;;;;;15.22;63.79;95355.94;5075376;28;20272;-65
2023/09/29 02:15:21;;;;;;;5.63;3.58;;;;;;;15.26;63.69;95356.78;5074540;28;20294;-65
2023/09/29 02:18:09;;;;;;;6.07;3.70;;;;;;;15.28;63.53;95351.66;5075266;28;20185;-66
2023/09/29 02:20:39;;;;;;;5.10;3.35;;;;;;;15.29;63.16;95354.06;5074591;28;20231;-66
2023/09/29 02:23:10;;;;;;;6.22;3.80;;;;;;;15.27;63.22;95353.63;5075211;28;20593;-66
2023/09/29 02:25:37;;;;;;;5.93;3.88;;;;;;;15.27;63.86;95344.50;5075480;28;20207;-66
2023/09/29 02:28:05;;;;;;;6.13;3.55;;;;;;;15.28;63.71;95346.09;5075541;28;20186;-66
2023/09/29 02:30:34;;;;;;;5.70;3.92;;;;;;;15.30;63.56;95352.09;5075488;28;20283;-66
2023/09/29 02:33:02;;;;;;;5.50;3.85;;;;;;;15.31;63.62;95354.47;5075136;28;20270;-66
2023/09/29 02:35:32;;;;;;;9.63;3.80;;;;;;;15.33;63.62;95354.91;5074410;28;20270;-66
2023/09/29 02:38:01;;;;;;;6.18;3.88;;;;;;;15.36;63.15;95353.38;5074152;28;20255;-66
2023/09/29 02:40:28;;;;;;;7.72;3.83;;;;;;;15.39;63.22;95358.94;5075599;28;20200;-66
2023/09/29 02:42:57;;;;;;;6.50;3.92;;;;;;;15.38;62.91;95359.34;5074978;28;20181;-66
2023/09/29 02:45:27;;;;;;;8.63;3.78;;;;;;;15.35;63.29;95360.06;5075269;28;20291;-66
2023/09/29 02:47:56;;;;;;;4.70;3.72;;;;;;;15.37;63.21;95363.28;5075188;28;20228;-66
2023/09/29 02:50:24;;;;;;;6.28;3.60;;;;;;;15.37;63.27;95358.53;5074322;28;20201;-66
2023/09/29 02:52:53;;;;;;;5.70;4.38;;;;;;;15.37;63.00;95357.75;5074076;28;20200;-66
2023/09/29 02:55:20;;;;;;;5.15;3.70;;;;;;;15.37;63.48;95364.09;5074815;28;20326;-66
2023/09/29 02:57:48;;;;;;;6.18;3.47;;;;;;;15.37;63.58;95363.28;5096243;28;20655;-65
2023/09/29 03:00:18;;;;;;;5.10;3.60;;;;;;;15.39;63.57;95366.47;5114815;28;20214;-66
2023/09/29 03:02:46;;;;;;;4.63;3.67;;;;;;;15.43;63.24;95366.53;5115369;28;20183;-65
2023/09/29 03:05:18;;;;;;;5.60;3.72;;;;;;;15.44;63.41;95368.94;5115357;28;20517;-64
2023/09/29 03:07:46;;;;;;;5.30;4.18;;;;;;;15.48;63.29;95369.00;5115707;28;20603;-64
2023/09/29 03:10:16;;;;;;;6.53;4.18;;;;;;;15.47;63.32;95368.19;5115696;28;20199;-64
2023/09/29 03:12:46;;;;;;;7.18;4.00;;;;;;;15.48;63.82;95378.13;5115275;28;20240;-64
2023/09/29 03:15:17;;;;;;;6.22;3.42;;;;;;;15.48;63.42;95375.34;5115477;28;20215;-64
2023/09/29 03:17:49;;;;;;;6.75;3.63;;;;;;;15.48;63.98;95367.00;5097564;28;20307;-64
2023/09/29 03:20:22;;;;;;;5.13;3.83;;;;;;;15.51;63.77;95384.94;5115486;28;20241;-65
2023/09/29 03:22:53;;;;;;;6.35;4.07;;;;;;;15.51;64.04;95373.81;5115498;28;20176;-64
2023/09/29 03:25:23;;;;;;;5.28;3.55;;;;;;;15.52;63.60;95378.19;5115703;28;20271;-64
2023/09/29 03:27:59;;;;;;;6.65;3.72;;;;;;;15.50;64.00;95372.19;5115133;28;20275;-65
2023/09/29 03:30:31;;;;;;;6.38;4.07;;;;;;;15.49;63.70;95376.16;5115615;28;20202;-65
2023/09/29 03:33:01;;;;;;;6.93;3.92;;;;;;;15.47;63.91;95368.19;5115281;28;20291;-64
2023/09/29 03:35:30;;;;;;;7.75;4.10;;;;;;;15.43;63.75;95372.09;5114653;28;20247;-65
2023/09/29 03:38:00;;;;;;;7.78;4.07;;;;;;;15.43;63.75;95378.44;5096537;28;20211;-65
2023/09/29 03:40:27;;;;;;;7.60;3.70;;;;;;;15.41;64.16;95375.25;5115391;28;20381;-64
2023/09/29 03:42:55;;;;;;;7.70;4.25;;;;;;;15.38;64.06;95384.34;5114950;28;20650;-64
2023/09/29 03:45:23;;;;;;;6.32;4.32;;;;;;;15.36;64.14;95381.94;5114142;28;20192;-64
2023/09/29 03:47:54;;;;;;;5.53;4.20;;;;;;;15.34;64.44;95366.81;5115369;28;20184;-64
2023/09/29 03:50:21;;;;;;;9.88;4.43;;;;;;;15.33;64.65;95373.56;5115148;28;20192;-64
2023/09/29 03:52:54;;;;;;;9.30;3.80;;;;;;;15.36;64.71;95379.16;5118423;28;20216;-64
2023/09/29 03:55:23;;;;;;;8.10;3.70;;;;;;;15.39;64.26;95375.63;5119164;28;20195;-65
2023/09/29 03:57:50;;;;;;;10.70;4.82;;;;;;;15.43;63.60;95384.00;5118467;28;20856;-66
2023/09/29 04:00:19;;;;;;;14.32;4.90;;;;;;;15.40;63.61;95373.66;5117976;28;20259;-65
2023/09/29 04:02:49;;;;;;;8.52;5.00;;;;;;;15.43;63.76;95374.88;5118161;28;20200;-65
2023/09/29 04:05:20;;;;;;;9.05;4.60;;;;;;;15.39;64.53;95364.50;5118411;28;20274;-65
2023/09/29 04:07:49;;;;;;;7.68;4.68;;;;;;;15.38;64.12;95362.09;5117870;28;20230;-65
2023/09/29 04:10:20;;;;;;;15.85;6.63;;;;;;;15.31;64.00;95368.38;5117806;28;20210;-65
2023/09/29 04:12:49;;;;;;;11.52;5.63;;;;;;;15.24;64.45;95368.25;5118372;28;20184;-65
2023/09/29 04:15:18;;;;;;;8.23;5.30;;;;;;;15.23;65.09;95377.00;5118617;28;20230;-65
2023/09/29 04:17:44;;;;;;;10.52;5.25;;;;;;;15.24;64.69;95378.59;5118661;27;20247;-65
2023/09/29 04:20:15;;;;;;;10.18;5.10;;;;;;;15.24;64.82;95378.59;5117679;28;20607;-65
2023/09/29 04:22:45;;;;;;;11.13;5.43;;;;;;;15.19;64.78;95376.94;5118338;28;20200;-65
2023/09/29 04:25:16;;;;;;;9.00;5.45;;;;;;;15.18;65.37;95375.34;5117775;28;20199;-65
2023/09/29 04:27:44;;;;;;;7.05;4.82;;;;;;;15.20;65.31;95378.53;5118862;28;20184;-65
2023/09/29 04:30:15;;;;;;;8.38;5.40;;;;;;;15.19;65.33;95376.16;5117345;28;20253;-65
2023/09/29 04:32:47;;;;;;;10.00;5.88;;;;;;;15.19;65.42;95376.94;5116862;28;20277;-65
2023/09/29 04:35:15;;;;;;;7.68;5.55;;;;;;;15.18;65.33;95375.34;5118153;28;20236;-65
2023/09/29 04:37:44;;;;;;;11.10;5.93;;;;;;;15.23;65.53;95375.00;5117217;28;20536;-65
2023/09/29 04:40:18;;;;;;;9.80;5.65;;;;;;;15.20;65.32;95378.53;5117764;28;20192;-65
2023/09/29 04:42:45;;;;;;;12.23;6.25;;;;;;;15.19;65.37;95381.69;5117184;28;20290;-65
2023/09/29 04:45:13;;;;;;;10.82;6.20;;;;;;;15.17;65.63;95385.63;5117791;28;20273;-65
2023/09/29 04:47:40;;;;;;;10.48;6.47;;;;;;;15.20;65.29;95384.09;5117964;28;20188;-65
2023/09/29 04:50:14;;;;;;;12.18;5.85;;;;;;;15.22;65.10;95384.53;5117952;28;20180;-65
2023/09/29 04:52:44;;;;;;;10.18;5.85;;;;;;;15.24;65.14;95382.16;5117835;28;20199;-65
2023/09/29 04:55:17;;;;;;;10.70;6.10;;;;;;;15.26;64.63;95393.72;5117551;28;20207;-65
2023/09/29 04:57:44;;;;;;;14.60;6.13;;;;;;;15.27;64.86;95381.41;5117991;28;20231;-65
2023/09/29 05:00:16;;;;;;;17.92;6.28;;;;;;;15.28;64.98;95398.88;5117449;28;20599;-65
2023/09/29 05:02:45;;;;;;;20.02;6.03;;;;;;;15.27;64.81;95392.53;5116591;28;20184;-65
2023/09/29 05:05:16;;;;;;;9.32;5.40;;;;;;;15.30;64.75;95399.31;5117911;28;20187;-65
2023/09/29 05:07:44;;;;;;;18.38;6.10;;;;;;;15.29;64.86;95392.16;5117653;28;20192;-65
2023/09/29 05:10:14;;;;;;;14.27;6.00;;;;;;;15.26;64.74;95396.50;5117590;28;20216;-65
2023/09/29 05:12:43;;;;;;;15.52;8.07;;;;;;;15.25;65.02;95402.41;5117418;28;20204;-65
2023/09/29 05:15:11;;;;;;;8.73;5.60;;;;;;;15.26;64.78;95402.06;5116821;28;20222;-65
2023/09/29 05:17:38;;;;;;;10.77;5.10;;;;;;;15.29;64.17;95403.28;5117102;28;20592;-65
2023/09/29 05:20:10;;;;;;;13.07;5.03;;;;;;;15.30;64.10;95411.22;5117124;28;20599;-65
2023/09/29 05:22:36;;;;;;;11.30;5.13;;;;;;;15.35;63.78;95402.56;5116317;28;20510;-65
2023/09/29 05:25:05;;;;;;;12.52;5.75;;;;;;;15.35;63.68;95408.13;5117315;28;20194;-65
2023/09/29 05:27:35;;;;;;;10.05;6.68;;;;;;;15.34;63.46;95406.53;5116540;28;20627;-65
2023/09/29 05:30:03;;;;;;;12.60;6.38;;;;;;;15.37;63.40;95411.34;5116209;28;20261;-65
2023/09/29 05:32:31;;;;;;;15.38;6.90;;;;;;;15.38;63.40;95407.38;5116168;28;20290;-65
2023/09/29 05:34:58;;;;;;;12.75;6.57;;;;;;;15.39;63.60;95408.97;5117220;28;20204;-65
2023/09/29 05:37:26;;;;;;;12.23;6.22;;;;;;;15.42;63.61;95410.19;5117080;28;20263;-65
2023/09/29 05:39:53;;;;;;;14.27;6.20;;;;;;;15.42;63.21;95415.75;5116635;28;20274;-65
2023/09/29 05:42:24;;;;;;;13.88;6.88;;;;;;;15.45;63.25;95422.56;5115963;28;20272;-65
2023/09/29 05:44:55;;;;;;;13.00;7.05;;;;;;;15.48;62.89;95414.25;5117313;28;20192;-65
2023/09/29 05:47:27;;;;;;;13.18;7.00;;;;;;;15.53;62.73;95416.72;5116781;28;20188;-65
2023/09/29 05:49:54;;;;;;;11.32;6.50;;;;;;;15.54;62.23;95420.28;5115980;28;20202;-65
2023/09/29 05:52:22;;;;;;;14.60;9.70;;;;;;;15.55;62.26;95427.47;5116135;28;20199;-65
2023/09/29 05:54:50;;;;;;;13.57;11.60;;;;;;;15.54;62.24;95421.13;5116028;28;20219;-65
2023/09/29 05:57:18;;;;;;;14.65;11.48;;;;;;;15.58;62.54;95424.75;5116498;28;20326;-65
2023/09/29 05:59:44;;;;;;;13.93;11.60;;;;;;;15.65;62.58;95424.03;5116262;28;20554;-65
2023/09/29 06:02:15;;;;;;;17.80;11.50;;;;;;;15.69;62.60;95424.13;5116834;27;20199;-65
2023/09/29 06:04:45;;;;;;;16.75;12.18;;;;;;;15.72;62.17;95426.91;5116844;28;20187;-65
2023/09/29 06:07:12;;;;;;;14.40;11.68;;;;;;;15.72;61.80;95426.91;5115755;28;20264;-65
2023/09/29 06:09:41;;;;;;;14.18;11.35;;;;;;;15.76;61.62;95419.44;5116702;28;20195;-65
2023/09/29 06:12:08;;;;;;;13.45;11.75;;;;;;;15.83;61.50;95429.84;5116706;28;20184;-65
2023/09/29 06:14:38;;;;;;;15.52;13.85;;;;;;;15.89;61.52;95429.13;5114955;28;20234;-65
2023/09/29 06:17:05;;;;;;;17.65;14.10;;;;;;;15.89;62.46;95426.34;5116178;28;20200;-65
2023/09/29 06:19:35;;;;;;;20.42;15.30;;;;;;;15.94;62.12;95422.44;5116312;28;20183;-65
2023/09/29 06:22:03;;;;;;;24.02;16.85;;;;;;;15.98;61.85;95425.28;5116157;28;20594;-65
2023/09/29 06:24:30;;;;;;;19.52;14.98;;;;;;;16.01;61.59;95419.75;5116163;28;20248;-65
2023/09/29 06:26:57;;;;;;;19.27;14.30;;;;;;;16.04;61.07;95426.53;5115179;28;20196;-65
2023/09/29 06:29:26;;;;;;;18.70;13.18;;;;;;;16.09;61.09;95423.41;5116369;28;20184;-65
2023/09/29 06:31:53;;;;;;;16.70;11.88;;;;;;;16.15;60.83;95429.44;5115960;28;20206;-65
2023/09/29 06:34:22;;;;;;;16.25;12.10;;;;;;;16.21;61.20;95425.94;5115091;28;20225;-65
2023/09/29 06:36:50;;;;;;;15.63;11.50;;;;;;;16.25;60.56;95432.34;5115510;28;20286;-65
2023/09/29 06:39:19;;;;;;;14.18;11.68;;;;;;;16.30;60.73;95426.44;5116210;28;20183;-65
2023/09/29 06:41:46;;;;;;;16.30;10.27;;;;;;;16.40;60.83;95422.16;5114877;28;20610;-65
2023/09/29 06:44:16;;;;;;;18.88;11.00;;;;;;;16.48;60.71;95431.38;5115564;28;20199;-65
2023/09/29 06:46:43;;;;;;;13.48;10.18;;;;;;;16.55;60.27;95423.88;5115197;28;20210;-65
2023/09/29 06:49:11;;;;;;;18.20;10.80;;;;;;;16.61;59.88;95418.78;5115861;28;20183;-65
2023/09/29 06:51:38;;;;;;;13.82;9.43;;;;;;;16.68;59.85;95421.63;5114644;28;20191;-65
2023/09/29 06:54:08;;;;;;;17.27;10.25;;;;;;;16.77;59.78;95424.13;5114867;28;20202;-65
2023/09/29 06:56:36;;;;;;;19.33;10.02;;;;;;;16.84;59.32;95421.41;5115412;28;20208;-65
2023/09/29 06:59:04;;;;;;;15.10;8.90;;;;;;;16.91;59.05;95417.88;5115767;28;20188;-65
2023/09/29 07:01:32;;;;;;;14.60;9.57;;;;;;;16.97;59.03;95413.56;5115351;28;20514;-65
2023/09/29 07:04:00;;;;;;;12.57;8.15;;;;;;;17.04;59.05;95416.41;5115412;28;20184;-65
2023/09/29 07:06:28;;;;;;;9.38;5.93;;;;;;;17.11;57.86;95416.47;5115504;28;20199;-65
2023/09/29 07:08:57;;;;;;;11.65;6.18;;;;;;;17.18;56.88;95416.50;5115593;28;20188;-65
2023/09/29 07:11:25;;;;;;;9.90;6.50;;;;;;;17.27;56.67;95418.94;5114627;28;20187;-65
2023/09/29 07:13:54;;;;;;;9.73;6.10;;;;;;;17.32;56.30;95415.81;5114658;28;20210;-65
2023/09/29 07:16:23;;;;;;;11.18;6.25;;;;;;;17.38;56.06;95414.25;5115533;28;20204;-65
2023/09/29 07:18:51;;;;;;;8.98;5.65;;;;;;;17.43;55.69;95419.47;5115838;28;20192;-65
2023/09/29 07:21:19;;;;;;;12.73;5.00;;;;;;;17.50;55.54;95424.28;5114549;28;20253;-65
2023/09/29 07:23:48;;;;;;;9.32;4.90;;;;;;;17.55;55.17;95416.34;5115127;28;20184;-65
2023/09/29 07:26:15;;;;;;;8.30;4.50;;;;;;;17.62;54.66;95423.97;5118681;28;20198;-65
2023/09/29 07:28:46;;;;;;;5.97;4.45;;;;;;;17.68;54.35;95422.38;5118574;28;20207;-65
2023/09/29 07:31:16;;;;;;;5.88;4.43;;;;;;;17.74;54.24;95422.81;5119437;28;20189;-65
2023/09/29 07:33:45;;;;;;;5.32;4.32;;;;;;;17.83;53.32;95428.91;5119517;28;20515;-65
2023/09/29 07:36:13;;;;;;;10.90;4.82;;;;;;;17.96;52.62;95423.75;5119373;28;20267;-65
2023/09/29 07:38:40;;;;;;;11.90;4.53;;;;;;;18.12;52.30;95426.19;5118146;28;20504;-65
2023/09/29 07:41:08;;;;;;;11.07;4.22;;;;;;;18.28;51.44;95421.88;5119168;28;20184;-65
2023/09/29 07:43:37;;;;;;;8.43;4.32;;;;;;;18.41;51.12;95427.09;5118813;28;20504;-65
2023/09/29 07:46:07;;;;;;;10.57;4.60;;;;;;;18.51;50.94;95431.91;5118913;28;20196;-65
2023/09/29 07:48:36;;;;;;;13.50;5.20;;;;;;;18.56;50.51;95434.34;5118978;28;20195;-65
2023/09/29 07:51:04;;;;;;;12.43;5.38;;;;;;;18.61;50.20;95433.13;5118025;28;20199;-65
2023/09/29 07:53:33;;;;;;;12.38;5.50;;;;;;;18.65;50.53;95431.94;5118127;28;20196;-65
2023/09/29 07:56:02;;;;;;;8.77;4.40;;;;;;;18.68;48.37;95428.34;5118566;28;20268;-65
2023/09/29 07:58:30;;;;;;;5.78;4.60;;;;;;;18.73;47.11;95425.19;5117637;28;20238;-65
2023/09/29 08:01:00;;;;;;;5.32;3.58;;;;;;;18.82;45.22;95430.41;5117626;28;20198;-65
2023/09/29 08:03:33;;;;;;;5.40;3.55;;;;;;;18.90;45.49;95426.41;5118796;28;20248;-65
2023/09/29 08:06:01;;;;;;;9.93;4.13;;;;;;;18.95;45.70;95428.84;5118432;28;20191;-65
2023/09/29 08:08:29;;;;;;;5.90;3.97;;;;;;;18.95;45.51;95426.03;5117989;28;20272;-65
2023/09/29 08:10:57;;;;;;;6.32;3.88;;;;;;;18.97;45.57;95428.41;5118305;28;20617;-65
2023/09/29 08:13:26;;;;;;;6.07;4.05;;;;;;;19.03;45.86;95435.22;5118716;28;20184;-65
2023/09/29 08:15:54;;;;;;;5.72;4.38;;;;;;;19.12;45.71;95427.22;5117883;28;20239;-65
2023/09/29 08:18:22;;;;;;;9.15;4.45;;;;;;;19.23;45.77;95416.81;5118226;28;20190;-65
2023/09/29 08:20:57;;;;;;;8.02;4.55;;;;;;;19.35;45.04;95424.00;5116669;28;20646;-65
2023/09/29 08:23:30;;;;;;;8.32;4.53;;;;;;;19.54;44.78;95422.00;5117453;28;20195;-65
2023/09/29 08:25:59;;;;;;;10.73;4.85;;;;;;;19.82;43.54;95424.75;5117760;28;20427;-65
2023/09/29 08:28:27;;;;;;;6.15;4.40;;;;;;;19.90;42.15;95429.13;5118006;28;20211;-65
2023/09/29 08:30:56;;;;;;;8.40;4.05;;;;;;;19.93;41.34;95424.72;5116950;28;20220;-65
2023/09/29 08:33:29;;;;;;;6.68;4.35;;;;;;;19.90;42.64;95426.34;5117502;28;20294;-65
2023/09/29 08:36:02;;;;;;;9.50;5.00;;;;;;;19.85;43.57;95414.75;5117541;28;20203;-65
2023/09/29 08:38:29;;;;;;;10.02;4.78;;;;;;;19.82;44.53;95412.75;5117816;28;20191;-65
2023/09/29 08:41:01;;;;;;;8.88;4.20;;;;;;;19.79;42.55;95413.56;5117259;28;20291;-65
2023/09/29 08:43:30;;;;;;;7.80;4.10;;;;;;;19.75;41.58;95410.75;5117809;28;20256;-65
2023/09/29 08:46:00;;;;;;;7.85;4.00;;;;;;;19.70;41.96;95414.00;5117461;28;20190;-65
2023/09/29 08:48:32;;;;;;;7.68;4.15;;;;;;;19.67;42.76;95420.38;5116951;28;20637;-65
2023/09/29 08:51:03;;;;;;;7.13;4.00;;;;;;;19.65;42.89;95409.63;5117798;28;20256;-65
2023/09/29 08:53:34;;;;;;;7.03;4.22;;;;;;;19.65;43.46;95414.41;5117584;28;20649;-65
2023/09/29 08:56:05;;;;;;;5.38;4.20;;;;;;;19.66;43.23;95416.78;5116630;28;20221;-65
2023/09/29 08:58:34;;;;;;;5.95;3.78;;;;;;;19.72;42.72;95420.00;5116638;28;20334;-65
2023/09/29 09:01:05;;;;;;;7.50;3.88;;;;;;;19.82;42.49;95409.94;5117549;28;20279;-65
2023/09/29 09:03:34;;;;;;;5.47;4.13;;;;;;;19.96;42.49;95412.72;5117637;28;20219;-65
2023/09/29 09:06:09;;;;;;;7.05;3.88;;;;;;;20.27;41.80;95404.59;5116612;28;20191;-65
2023/09/29 09:08:38;;;;;;;6.47;3.78;;;;;;;20.75;40.27;95413.13;5117549;28;20270;-65
2023/09/29 09:11:05;;;;;;;4.72;3.85;;;;;;;21.07;38.43;95407.28;5117343;28;20205;-65
2023/09/29 09:13:33;;;;;;;4.40;3.78;;;;;;;21.18;37.43;95406.41;5116926;28;20198;-65
2023/09/29 09:16:01;;;;;;;4.38;3.30;;;;;;;21.22;37.28;95402.34;5116586;28;20248;-65
2023/09/29 09:18:30;;;;;;;6.28;3.70;;;;;;;21.16;36.87;95407.59;5117261;28;20192;-65
2023/09/29 09:20:57;;;;;;;4.60;2.97;;;;;;;21.05;36.35;95408.91;5116368;28;20282;-65
2023/09/29 09:23:37;;;;;;;5.30;3.47;;;;;;;20.90;36.97;95405.41;5116572;28;20180;-65
2023/09/29 09:26:13;;;;;;;4.60;3.08;;;;;;;20.82;36.69;95409.50;5117227;28;20184;-65
2023/09/29 09:28:41;;;;;;;6.72;3.67;;;;;;;20.77;38.68;95405.13;5116892;28;20195;-65
2023/09/29 09:31:10;;;;;;;6.40;3.70;;;;;;;20.83;37.91;95399.88;5116107;28;20252;-65
2023/09/29 09:33:39;;;;;;;3.97;3.42;;;;;;;20.94;37.24;95402.59;5117109;28;20198;-65
2023/09/29 09:36:09;;;;;;;4.75;3.85;;;;;;;21.13;36.08;95410.44;5116090;28;20211;-65
2023/09/29 09:38:40;;;;;;;6.28;4.30;;;;;;;21.36;36.49;95399.47;5115708;28;20290;-65
2023/09/29 09:41:09;;;;;;;5.97;4.07;;;;;;;21.63;36.43;95398.78;5116843;28;20180;-65
2023/09/29 09:43:39;;;;;;;4.40;3.40;;;;;;;21.99;35.06;95392.78;5116060;28;20217;-65
2023/09/29 09:46:12;;;;;;;5.60;3.70;;;;;;;22.28;34.94;95401.69;5116082;28;20191;-65
2023/09/29 09:48:50;;;;;;;7.20;3.95;;;;;;;22.50;34.26;95393.75;5115062;28;20203;-65
2023/09/29 09:51:30;;;;;;;5.70;3.67;;;;;;;22.46;33.17;95399.44;5116433;28;20184;-65
2023/09/29 09:54:08;;;;;;;4.85;3.78;;;;;;;22.38;33.34;95394.34;5116886;28;20179;-65
2023/09/29 09:56:42;;;;;;;5.57;3.80;;;;;;;22.44;33.47;95398.25;5115705;28;20219;-65
2023/09/29 09:59:11;;;;;;;8.23;4.20;;;;;;;22.32;32.99;95391.97;5074909;28;20193;-65
2023/09/29 10:01:43;;;;;;;7.35;3.90;;;;;;;22.17;33.21;95395.41;5075520;28;20287;-65
2023/09/29 10:04:13;;;;;;;4.70;3.45;;;;;;;22.13;33.73;95389.81;5075992;28;20177;-65
2023/09/29 10:06:45;;;;;;;7.10;3.90;;;;;;;22.02;32.88;95389.94;5075760;28;20196;-65
2023/09/29 10:09:18;;;;;;;6.50;4.03;;;;;;;;;;5075745;28;20200;-65
2023/09/29 10:11:47;;;;;;;4.68;3.90;;;;;;;22.22;33.73;95392.13;5075171;28;20197;-65
2023/09/29 10:14:15;;;;;;;4.88;3.58;;;;;;;22.31;33.64;95393.22;5075712;28;20185;-65
2023/09/29 10:16:44;;;;;;;7.68;3.80;;;;;;;22.34;33.94;95385.97;5075364;28;20216;-65
2023/09/29 10:19:16;;;;;;;6.72;3.97;;;;;;;22.41;34.55;95387.88;5074243;28;20250;-65
2023/09/29 10:21:45;;;;;;;6.35;3.90;;;;;;;22.56;33.75;95384.44;5074634;28;20197;-65
2023/09/29 10:24:25;;;;;;;5.20;3.60;;;;;;;22.68;32.95;95385.88;5075507;28;20240;-65
2023/09/29 10:26:54;;;;;;;7.47;3.90;;;;;;;22.72;33.46;95369.75;5075838;28;20207;-65
2023/09/29 10:29:24;;;;;;;7.05;3.70;;;;;;;22.85;33.15;95371.97;5074242;28;20561;-65
2023/09/29 10:31:51;;;;;;;6.18;3.83;;;;;;;23.10;32.68;95368.78;5075646;28;20200;-65
2023/09/29 10:34:26;;;;;;;4.93;4.00;;;;;;;22.99;32.62;95366.16;5075786;28;20189;-65
2023/09/29 10:36:57;;;;;;;5.47;4.20;;;;;;;22.71;32.61;95367.38;5075395;28;20209;-65
2023/09/29 10:39:30;;;;;;;7.38;4.20;;;;;;;22.47;33.40;95360.88;5075115;28;20208;-65
2023/09/29 10:41:59;;;;;;;4.07;3.47;;;;;;;22.24;33.00;95358.78;5074526;28;20200;-65
2023/09/29 10:44:28;;;;;;;4.97;3.80;;;;;;;22.03;33.37;95352.19;5075026;28;20186;-65
2023/09/29 10:46:56;;;;;;;6.35;3.70;;;;;;;21.95;33.66;95358.34;5075295;28;20180;-65
2023/09/29 10:49:35;;;;;;;5.35;3.60;;;;;;;21.83;32.62;95351.25;5074940;28;20288;-65
2023/09/29 10:52:03;;;;;;;4.97;3.50;;;;;;;21.74;32.50;95357.38;5074371;28;20201;-65
2023/09/29 10:54:42;;;;;;;9.93;3.95;;;;;;;21.66;32.48;95347.44;5075007;28;20577;-65
2023/09/29 10:57:11;;;;;;;6.57;3.38;;;;;;;21.64;31.83;95349.84;5083397;28;20318;-65
2023/09/29 10:59:47;;;;;;;4.82;3.55;;;;;;;21.72;32.37;95350.59;5115524;28;20184;-65
2023/09/29 11:02:16;;;;;;;6.00;4.63;;;;;;;21.85;31.97;95348.81;5114860;28;20195;-65
2023/09/29 11:04:46;;;;;;;4.47;3.60;;;;;;;21.97;31.44;95345.47;5115849;28;20199;-65
2023/09/29 11:07:18;;;;;;;6.25;4.10;;;;;;;22.10;32.73;95337.28;5115025;28;20202;-65
2023/09/29 11:09:49;;;;;;;7.78;4.10;;;;;;;22.33;32.28;95333.78;5114646;28;20220;-65
2023/09/29 11:12:26;;;;;;;5.53;4.68;;;;;;;22.47;32.81;95338.41;5115510;28;20199;-65
2023/09/29 11:14:57;;;;;;;6.55;4.90;;;;;;;22.53;32.94;95340.31;5114655;28;20627;-65
2023/09/29 11:17:28;;;;;;;5.65;4.40;;;;;;;22.53;32.85;95328.28;5115550;28;20204;-65
2023/09/29 11:19:57;;;;;;;9.00;4.20;;;;;;;22.48;32.70;95334.38;5115596;28;20188;-65
2023/09/29 11:22:26;;;;;;;4.90;4.30;;;;;;;22.48;31.58;95335.19;5114554;28;20540;-65
2023/09/29 11:24:54;;;;;;;6.95;4.20;;;;;;;22.58;31.63;95319.34;5115452;28;20235;-65
2023/09/29 11:27:25;;;;;;;7.72;4.15;;;;;;;22.64;31.93;95317.66;5114225;28;20200;-65
2023/09/29 11:29:53;;;;;;;8.48;4.35;;;;;;;22.59;32.35;95318.16;5115723;28;20191;-65
2023/09/29 11:32:22;;;;;;;5.85;3.67;;;;;;;22.59;33.64;95323.78;5115355;28;20196;-65
2023/09/29 11:34:51;;;;;;;5.93;3.80;;;;;;;22.70;32.21;95312.38;5114804;28;20206;-65
2023/09/29 11:37:20;;;;;;;5.53;3.97;;;;;;;22.83;32.99;95305.69;5115606;28;20280;-65
2023/09/29 11:39:47;;;;;;;4.97;4.18;;;;;;;23.04;32.08;95303.78;5114652;28;20203;-65
2023/09/29 11:42:20;;;;;;;9.38;4.53;;;;;;;23.21;32.05;95305.50;5115032;28;20176;-65